createdAt,value
2018-01-27T00:01:12.614Z,8.97
2018-01-27T00:03:40.125Z,9.00
2018-01-27T00:06:07.647Z,9.40
2018-01-27T00:08:35.154Z,8.80
2018-01-27T00:11:02.678Z,10.00
2018-01-27T00:13:30.179Z,10.70
2018-01-27T00:15:57.692Z,10.50
2018-01-27T00:18:25.229Z,9.40
2018-01-27T00:20:52.744Z,9.53
2018-01-27T00:23:20.267Z,8.57
2018-01-27T00:25:47.785Z,9.60
2018-01-27T00:28:16.079Z,9.23
2018-01-27T00:30:44.361Z,9.60
2018-01-27T00:33:11.891Z,9.80
2018-01-27T00:35:39.409Z,9.00
2018-01-27T00:38:06.944Z,10.47
2018-01-27T00:40:34.461Z,9.73
2018-01-27T00:43:01.995Z,9.27
2018-01-27T00:45:29.495Z,9.93
2018-01-27T00:47:57.040Z,10.17
2018-01-27T00:50:24.605Z,10.47
2018-01-27T00:52:52.095Z,10.23
2018-01-27T00:55:20.393Z,10.10
2018-01-27T00:57:47.896Z,10.13
2018-01-27T01:00:15.432Z,12.77
2018-01-27T01:02:42.949Z,9.87
2018-01-27T01:05:11.250Z,11.00
2018-01-27T01:07:38.771Z,11.33
2018-01-27T01:10:06.308Z,10.33
2018-01-27T01:12:33.823Z,10.60
2018-01-27T01:15:01.356Z,11.57
2018-01-27T01:17:29.638Z,11.00
2018-01-27T01:19:57.952Z,11.37
2018-01-27T01:22:25.455Z,10.60
2018-01-27T01:24:52.986Z,10.63
2018-01-27T01:27:20.507Z,9.60
2018-01-27T01:29:48.783Z,10.57
2018-01-27T01:32:17.098Z,10.63
2018-01-27T01:34:44.620Z,10.83
2018-01-27T01:37:12.927Z,10.73
2018-01-27T01:39:40.435Z,10.63
2018-01-27T01:42:07.964Z,10.53
2018-01-27T01:44:35.475Z,10.63
2018-01-27T01:47:03.766Z,10.43
2018-01-27T01:49:31.278Z,11.77
2018-01-27T01:51:58.810Z,10.90
2018-01-27T01:54:26.333Z,11.70
2018-01-27T01:56:54.639Z,11.33
2018-01-27T01:59:22.143Z,10.60
2018-01-27T02:01:49.671Z,11.37
2018-01-27T02:04:17.247Z,12.40
2018-01-27T02:06:44.756Z,11.47
2018-01-27T02:09:12.275Z,11.83
2018-01-27T02:11:39.796Z,10.70
2018-01-27T02:14:07.313Z,11.33
2018-01-27T02:16:34.846Z,12.00
2018-01-27T02:19:02.379Z,11.63
2018-01-27T02:21:29.910Z,12.57
2018-01-27T02:23:58.202Z,11.40
2018-01-27T02:26:25.715Z,11.60
2018-01-27T02:28:53.246Z,11.60
2018-01-27T02:31:20.763Z,11.40
2018-01-27T02:33:49.077Z,12.47
2018-01-27T02:36:16.582Z,11.43
2018-01-27T02:38:44.111Z,10.60
2018-01-27T02:41:11.627Z,11.13
2018-01-27T02:43:39.924Z,11.33
2018-01-27T02:46:07.438Z,12.37
2018-01-27T02:48:34.977Z,11.77
2018-01-27T02:51:02.517Z,12.30
2018-01-27T02:53:30.074Z,11.40
2018-01-27T02:55:57.592Z,12.30
2018-01-27T02:58:25.883Z,11.83
2018-01-27T03:00:54.192Z,11.70
2018-01-27T03:03:21.707Z,11.80
2018-01-27T03:05:50.003Z,11.20
2018-01-27T03:08:17.514Z,11.50
2018-01-27T03:10:45.052Z,12.70
2018-01-27T03:13:12.582Z,11.20
2018-01-27T03:15:40.111Z,12.27
2018-01-27T03:18:07.629Z,11.70
2018-01-27T03:20:35.160Z,11.13
2018-01-27T03:23:02.686Z,11.77
2018-01-27T03:25:30.243Z,11.93
2018-01-27T03:27:57.766Z,12.33
2018-01-27T03:30:25.284Z,11.90
2018-01-27T03:32:53.576Z,11.67
2018-01-27T03:35:21.847Z,12.40
2018-01-27T03:37:50.157Z,11.77
2018-01-27T03:40:17.667Z,11.50
2018-01-27T03:42:45.198Z,11.33
2018-01-27T03:45:12.702Z,12.07
2018-01-27T03:47:40.994Z,13.40
2018-01-27T03:50:08.505Z,11.17
2018-01-27T03:52:36.030Z,12.30
2018-01-27T03:55:03.543Z,11.80
2018-01-27T03:57:31.076Z,10.37
2018-01-27T03:59:58.596Z,11.20
2018-01-27T04:02:26.144Z,11.70
2018-01-27T04:04:54.418Z,11.50
2018-01-27T04:07:22.699Z,13.50
2018-01-27T04:09:50.994Z,11.97
2018-01-27T04:12:18.498Z,11.23
2018-01-27T04:14:46.027Z,11.83
2018-01-27T04:17:13.530Z,12.43
2018-01-27T04:19:41.055Z,11.40
2018-01-27T04:22:08.571Z,12.40
2018-01-27T04:24:36.886Z,11.37
2018-01-27T04:27:04.403Z,11.30
2018-01-27T04:29:32.709Z,11.40
2018-01-27T04:32:00.223Z,11.73
2018-01-27T04:34:27.751Z,10.67
2018-01-27T04:36:55.258Z,11.80
2018-01-27T04:39:23.559Z,11.30
2018-01-27T04:41:51.078Z,11.57
2018-01-27T04:44:18.684Z,11.67
2018-01-27T04:46:46.208Z,11.33
2018-01-27T04:49:13.744Z,11.50
2018-01-27T04:51:41.259Z,11.30
2018-01-27T04:54:08.797Z,11.20
2018-01-27T04:56:37.077Z,11.03
2018-01-27T04:59:05.376Z,11.17
2018-01-27T05:01:32.900Z,11.57
2018-01-27T05:04:00.437Z,10.00
2018-01-27T05:06:27.943Z,11.17
2018-01-27T05:08:56.219Z,10.53
2018-01-27T05:11:24.526Z,10.80
2018-01-27T05:13:52.049Z,10.40
2018-01-27T05:16:20.352Z,10.53
2018-01-27T05:18:47.873Z,11.70
2018-01-27T05:21:15.394Z,11.30
2018-01-27T05:23:42.916Z,10.90
2018-01-27T05:26:11.243Z,11.20
2018-01-27T05:28:38.754Z,10.37
2018-01-27T05:31:07.046Z,11.07
2018-01-27T05:33:34.551Z,10.60
2018-01-27T05:36:02.101Z,10.80
2018-01-27T05:38:29.615Z,10.47
2018-01-27T05:40:57.896Z,10.13
2018-01-27T05:43:25.440Z,11.70
2018-01-27T05:45:53.728Z,11.50
2018-01-27T05:48:22.015Z,9.50
2018-01-27T05:50:49.541Z,11.50
2018-01-27T05:53:17.072Z,10.60
2018-01-27T05:55:44.587Z,10.20
2018-01-27T05:58:12.886Z,9.80
2018-01-27T06:00:40.394Z,11.63
2018-01-27T06:03:07.923Z,10.00
2018-01-27T06:05:35.434Z,10.97
2018-01-27T06:08:03.722Z,10.40
2018-01-27T06:10:32.035Z,10.67
2018-01-27T06:12:59.559Z,10.43
2018-01-27T06:15:27.830Z,10.10
2018-01-27T06:17:56.115Z,9.93
2018-01-27T06:20:23.625Z,10.27
2018-01-27T06:22:51.134Z,10.47
2018-01-27T06:25:19.431Z,10.13
2018-01-27T06:27:46.939Z,10.87
2018-01-27T06:30:14.458Z,10.30
2018-01-27T06:32:41.962Z,10.53
2018-01-27T06:35:09.486Z,11.27
2018-01-27T06:37:37.008Z,12.50
2018-01-27T06:40:05.325Z,10.97
2018-01-27T06:42:32.840Z,10.60
2018-01-27T06:45:01.131Z,11.03
2018-01-27T06:47:28.668Z,10.53
2018-01-27T06:49:56.974Z,10.60
2018-01-27T06:52:24.556Z,10.87
2018-01-27T06:54:52.832Z,10.67
2018-01-27T06:57:20.351Z,10.60
2018-01-27T06:59:48.643Z,9.90
2018-01-27T07:02:16.159Z,10.70
2018-01-27T07:04:43.669Z,9.60
2018-01-27T07:07:11.225Z,10.63
2018-01-27T07:09:38.753Z,11.40
2018-01-27T07:12:06.297Z,10.20
2018-01-27T07:14:33.831Z,10.70
2018-01-27T07:17:01.391Z,11.07
2018-01-27T07:19:28.913Z,11.80
2018-01-27T07:21:57.223Z,9.90
2018-01-27T07:24:24.770Z,11.20
2018-01-27T07:26:52.319Z,11.20
2018-01-27T07:29:20.618Z,10.70
2018-01-27T07:31:48.170Z,10.70
2018-01-27T07:34:15.704Z,10.53
2018-01-27T07:36:43.220Z,11.30
2018-01-27T07:39:10.769Z,11.00
2018-01-27T07:41:39.073Z,11.77
2018-01-27T07:44:06.612Z,10.47
2018-01-27T07:46:34.899Z,10.83
2018-01-27T07:49:02.454Z,10.60
2018-01-27T07:51:30.740Z,10.80
2018-01-27T07:53:58.290Z,11.73
2018-01-27T07:56:26.570Z,11.33
2018-01-27T07:58:54.883Z,10.43
2018-01-27T08:01:22.425Z,10.20
2018-01-27T08:03:49.970Z,11.80
2018-01-27T08:06:17.534Z,11.50
2018-01-27T08:08:45.108Z,10.03
2018-01-27T08:11:12.681Z,11.10
2018-01-27T08:13:40.233Z,10.87
2018-01-27T08:16:07.763Z,12.23
2018-01-27T08:18:36.077Z,10.17
2018-01-27T08:21:03.665Z,11.10
2018-01-27T08:23:31.210Z,10.63
2018-01-27T08:25:58.752Z,10.70
2018-01-27T08:28:26.313Z,12.53
2018-01-27T08:30:53.880Z,11.70
2018-01-27T08:33:21.394Z,9.60
2018-01-27T08:35:48.916Z,10.70
2018-01-27T08:38:17.203Z,9.90
2018-01-27T08:40:44.744Z,10.00
2018-01-27T08:43:12.275Z,8.90
2018-01-27T08:45:39.803Z,9.63
2018-01-27T08:48:07.340Z,9.57
2018-01-27T08:50:34.876Z,9.90
2018-01-27T08:53:02.388Z,8.60
2018-01-27T08:55:30.727Z,11.13
2018-01-27T08:57:58.244Z,9.20
2018-01-27T09:00:26.560Z,9.37
2018-01-27T09:02:54.079Z,9.00
2018-01-27T09:05:22.430Z,7.70
2018-01-27T09:07:49.931Z,9.90
2018-01-27T09:10:17.451Z,8.40
2018-01-27T09:12:44.999Z,8.53
2018-01-27T09:15:12.530Z,8.70
2018-01-27T09:17:40.063Z,8.77
2018-01-27T09:20:08.367Z,8.30
2018-01-27T09:22:35.895Z,8.27
2018-01-27T09:25:04.238Z,9.60
2018-01-27T09:27:32.511Z,8.10
2018-01-27T09:30:00.047Z,8.43
2018-01-27T09:32:27.613Z,8.43
2018-01-27T09:34:55.180Z,11.80
2018-01-27T09:37:22.770Z,8.27
2018-01-27T09:39:50.280Z,7.53
2018-01-27T09:42:17.816Z,9.50
2018-01-27T09:44:46.132Z,8.40
2018-01-27T09:47:13.675Z,9.10
2018-01-27T09:49:41.249Z,8.13
2018-01-27T09:52:08.791Z,10.00
2018-01-27T09:54:36.314Z,8.50
2018-01-27T09:57:03.896Z,7.77
2018-01-27T09:59:32.199Z,8.40
2018-01-27T10:01:59.742Z,8.87
2018-01-27T10:04:28.051Z,7.67
2018-01-27T10:06:55.587Z,7.37
2018-01-27T10:09:23.874Z,6.77
2018-01-27T10:11:51.397Z,8.37
2018-01-27T10:14:18.944Z,7.30
2018-01-27T10:16:46.483Z,7.30
2018-01-27T10:19:14.035Z,8.07
2018-01-27T10:21:41.538Z,7.20
2018-01-27T10:24:09.081Z,6.80
2018-01-27T10:26:36.605Z,7.80
2018-01-27T10:29:04.179Z,7.27
2018-01-27T10:31:31.704Z,7.47
2018-01-27T10:33:59.993Z,7.10
2018-01-27T10:36:27.540Z,7.43
2018-01-27T10:38:55.828Z,8.23
2018-01-27T10:41:24.127Z,7.30
2018-01-27T10:43:51.666Z,7.23
2018-01-27T10:46:19.211Z,6.97
2018-01-27T10:48:47.493Z,6.73
2018-01-27T10:51:15.831Z,6.87
2018-01-27T10:53:43.347Z,7.13
2018-01-27T10:56:10.889Z,6.90
2018-01-27T10:58:39.175Z,11.47
2018-01-27T11:01:07.490Z,6.50
2018-01-27T11:03:35.007Z,6.80
2018-01-27T11:06:03.355Z,6.33
2018-01-27T11:08:30.899Z,7.20
2018-01-27T11:10:58.420Z,6.77
2018-01-27T11:13:26.720Z,7.17
2018-01-27T11:15:54.241Z,7.37
2018-01-27T11:18:22.553Z,6.77
2018-01-27T11:20:50.089Z,8.27
2018-01-27T11:23:18.391Z,7.23
2018-01-27T11:25:45.904Z,7.40
2018-01-27T11:28:13.448Z,7.60
2018-01-27T11:30:40.959Z,7.70
2018-01-27T11:33:08.497Z,8.53
2018-01-27T11:35:36.781Z,7.30
2018-01-27T11:38:05.117Z,7.67
2018-01-27T11:40:32.626Z,7.37
2018-01-27T11:43:00.947Z,7.27
2018-01-27T11:45:28.504Z,6.20
2018-01-27T11:47:56.050Z,6.70
2018-01-27T11:50:23.613Z,6.20
2018-01-27T11:52:51.155Z,7.10
2018-01-27T11:55:18.681Z,6.50
2018-01-27T11:57:46.198Z,6.57
2018-01-27T12:00:13.787Z,6.93
2018-01-27T12:02:46.987Z,6.40
2018-01-27T12:05:14.540Z,6.90
2018-01-27T12:07:42.068Z,6.30
2018-01-27T12:10:09.598Z,5.93
2018-01-27T12:12:37.971Z,5.50
2018-01-27T12:15:06.291Z,7.13
2018-01-27T12:17:33.819Z,7.03
2018-01-27T12:20:02.152Z,6.80
2018-01-27T12:22:29.659Z,6.43
2018-01-27T12:24:57.965Z,5.83
2018-01-27T12:27:25.476Z,5.83
2018-01-27T12:29:53.035Z,5.60
2018-01-27T12:32:20.581Z,7.10
2018-01-27T12:34:48.125Z,5.70
2018-01-27T12:37:15.696Z,5.60
2018-01-27T12:39:43.213Z,6.07
2018-01-27T12:42:10.739Z,6.03
2018-01-27T12:44:38.263Z,6.57
2018-01-27T12:47:05.783Z,7.37
2018-01-27T12:49:34.074Z,6.37
2018-01-27T12:52:01.613Z,6.03
2018-01-27T12:54:29.909Z,7.07
2018-01-27T12:56:57.442Z,7.10
2018-01-27T12:59:25.757Z,6.60
2018-01-27T13:01:53.322Z,7.97
2018-01-27T13:04:20.886Z,7.33
2018-01-27T13:06:48.413Z,7.37
2018-01-27T13:09:15.947Z,7.77
2018-01-27T13:11:43.456Z,6.70
2018-01-27T13:14:11.009Z,9.10
2018-01-27T13:16:38.519Z,6.70
2018-01-27T13:19:06.046Z,7.60
2018-01-27T13:21:33.584Z,7.57
2018-01-27T13:24:01.883Z,7.73
2018-01-27T13:26:29.405Z,7.53
2018-01-27T13:28:57.707Z,7.30
2018-01-27T13:31:25.215Z,7.87
2018-01-27T13:33:52.753Z,7.07
2018-01-27T13:36:20.323Z,7.70
2018-01-27T13:38:47.849Z,7.87
2018-01-27T13:41:15.403Z,7.93
2018-01-27T13:43:42.960Z,7.93
2018-01-27T13:46:11.267Z,7.23
2018-01-27T13:48:38.832Z,7.90
2018-01-27T13:51:06.382Z,7.93
2018-01-27T13:53:33.903Z,7.07
2018-01-27T13:56:02.212Z,6.60
2018-01-27T13:58:29.730Z,8.80
2018-01-27T14:00:57.267Z,7.80
2018-01-27T14:03:24.775Z,7.23
2018-01-27T14:05:53.073Z,7.30
2018-01-27T14:08:20.603Z,7.40
2018-01-27T14:10:48.887Z,7.13
2018-01-27T14:13:17.193Z,7.70
2018-01-27T14:15:44.722Z,8.80
2018-01-27T14:18:13.032Z,7.50
2018-01-27T14:20:40.559Z,6.60
2018-01-27T14:23:08.149Z,6.50
2018-01-27T14:25:35.659Z,6.67
2018-01-27T14:28:03.197Z,6.67
2018-01-27T14:30:30.703Z,7.50
2018-01-27T14:32:58.996Z,7.73
2018-01-27T14:35:26.558Z,8.37
2018-01-27T14:37:54.114Z,7.43
2018-01-27T14:40:21.620Z,7.10
2018-01-27T14:42:49.139Z,7.57
2018-01-27T14:45:16.692Z,7.67
2018-01-27T14:47:44.975Z,6.97
2018-01-27T14:50:12.559Z,7.80
2018-01-27T14:52:40.099Z,8.00
2018-01-27T14:55:07.637Z,7.93
2018-01-27T14:57:35.953Z,7.83
2018-01-27T15:00:03.491Z,7.60
2018-01-27T15:02:31.804Z,7.20
2018-01-27T15:04:59.351Z,7.70
2018-01-27T15:07:26.866Z,8.17
2018-01-27T15:09:54.414Z,8.80
2018-01-27T15:12:21.931Z,8.17
2018-01-27T15:14:49.473Z,8.37
2018-01-27T15:17:16.979Z,7.90
2018-01-27T15:19:44.514Z,8.10
2018-01-27T15:22:12.040Z,7.70
2018-01-27T15:24:40.326Z,7.80
2018-01-27T15:27:08.639Z,8.43
2018-01-27T15:29:36.143Z,7.50
2018-01-27T15:32:03.666Z,7.90
2018-01-27T15:34:31.223Z,8.00
2018-01-27T15:36:58.770Z,8.17
2018-01-27T15:39:26.283Z,8.27
2018-01-27T15:41:54.587Z,8.90
2018-01-27T15:44:22.859Z,8.30
2018-01-27T15:46:51.167Z,8.20
2018-01-27T15:49:18.685Z,9.10
2018-01-27T15:51:46.981Z,9.40
2018-01-27T15:54:15.261Z,8.40
2018-01-27T15:56:42.807Z,7.87
2018-01-27T15:59:11.114Z,8.03
2018-01-27T16:01:38.672Z,7.53
2018-01-27T16:04:06.947Z,9.27
2018-01-27T16:06:34.464Z,8.37
2018-01-27T16:09:01.995Z,8.07
2018-01-27T16:11:29.498Z,8.53
2018-01-27T16:13:57.840Z,8.57
2018-01-27T16:16:25.360Z,7.57
2018-01-27T16:18:52.888Z,8.67
2018-01-27T16:21:21.899Z,8.20
2018-01-27T16:23:50.210Z,8.80
2018-01-27T16:26:17.768Z,8.90
2018-01-27T16:28:45.290Z,8.80
2018-01-27T16:31:13.574Z,8.57
2018-01-27T16:33:41.892Z,9.13
2018-01-27T16:36:09.412Z,7.87
2018-01-27T16:38:37.691Z,8.67
2018-01-27T16:41:05.983Z,8.17
2018-01-27T16:43:33.486Z,8.07
2018-01-27T16:46:01.018Z,8.57
2018-01-27T16:48:28.526Z,8.07
2018-01-27T16:50:56.055Z,8.47
2018-01-27T16:53:23.563Z,8.50
2018-01-27T16:55:51.884Z,7.97
2018-01-27T16:58:19.397Z,7.80
2018-01-27T17:00:47.691Z,8.20
2018-01-27T17:03:15.971Z,8.60
2018-01-27T17:05:44.260Z,9.13
2018-01-27T17:08:11.783Z,7.30
2018-01-27T17:10:39.292Z,7.97
2018-01-27T17:13:06.819Z,7.40
2018-01-27T17:15:35.087Z,7.77
2018-01-27T17:18:02.659Z,8.70
2018-01-27T17:20:30.938Z,8.10
2018-01-27T17:22:59.232Z,9.20
2018-01-27T17:25:26.750Z,9.13
2018-01-27T17:27:54.275Z,7.33
2018-01-27T17:30:21.791Z,8.47
2018-01-27T17:32:50.087Z,8.70
2018-01-27T17:35:17.587Z,7.27
2018-01-27T17:37:45.101Z,8.80
2018-01-27T17:40:13.400Z,7.70
2018-01-27T17:42:40.910Z,7.40
2018-01-27T17:45:08.480Z,7.53
2018-01-27T17:47:35.971Z,9.17
2018-01-27T17:50:03.505Z,9.43
2018-01-27T17:52:31.780Z,7.53
2018-01-27T17:55:00.073Z,7.57
2018-01-27T17:57:28.342Z,8.43
2018-01-27T17:59:56.721Z,7.50
2018-01-27T18:02:24.998Z,7.00
2018-01-27T18:04:53.274Z,7.30
2018-01-27T18:07:21.571Z,7.43
2018-01-27T18:09:49.079Z,7.00
2018-01-27T18:12:16.604Z,8.30
2018-01-27T18:14:44.116Z,7.57
2018-01-27T18:17:11.639Z,6.93
2018-01-27T18:19:39.156Z,7.33
2018-01-27T18:22:07.469Z,7.77
2018-01-27T18:24:34.995Z,7.67
2018-01-27T18:27:03.269Z,7.70
2018-01-27T18:29:31.555Z,7.73
2018-01-27T18:31:59.823Z,7.90
2018-01-27T18:34:28.130Z,7.70
2018-01-27T18:36:55.636Z,8.67
2018-01-27T18:39:23.155Z,7.17
2018-01-27T18:41:50.663Z,7.70
2018-01-27T18:44:18.179Z,9.00
2018-01-27T18:46:45.684Z,8.40
2018-01-27T18:49:13.221Z,8.20
2018-01-27T18:51:40.726Z,9.10
2018-01-27T18:54:09.009Z,7.00
2018-01-27T18:56:36.535Z,8.53
2018-01-27T18:59:04.050Z,9.17
2018-01-27T19:01:31.584Z,6.90
2018-01-27T19:03:59.097Z,8.13
2018-01-27T19:06:26.630Z,7.93
2018-01-27T19:08:54.167Z,7.77
2018-01-27T19:11:21.719Z,7.10
2018-01-27T19:13:49.999Z,10.30
2018-01-27T19:16:18.291Z,8.30
2018-01-27T19:18:45.792Z,8.33
2018-01-27T19:21:13.325Z,8.70
2018-01-27T19:23:40.831Z,7.80
2018-01-27T19:26:08.368Z,10.07
2018-01-27T19:28:35.891Z,8.90
2018-01-27T19:31:03.423Z,9.67
2018-01-27T19:33:31.694Z,9.20
2018-01-27T19:35:59.220Z,8.53
2018-01-27T19:38:26.739Z,8.40
2018-01-27T19:40:54.246Z,9.87
2018-01-27T19:43:21.767Z,9.47
2018-01-27T19:45:49.275Z,9.87
2018-01-27T19:48:16.809Z,8.57
2018-01-27T19:50:44.316Z,9.57
2018-01-27T19:53:12.621Z,10.40
2018-01-27T19:55:40.142Z,9.20
2018-01-27T19:58:07.663Z,9.30
2018-01-27T20:00:35.167Z,10.20
2018-01-27T20:03:02.706Z,8.73
2018-01-27T20:05:30.233Z,9.60
2018-01-27T20:07:57.744Z,8.83
2018-01-27T20:10:25.291Z,8.53
2018-01-27T20:12:52.814Z,8.93
2018-01-27T20:15:20.335Z,7.87
2018-01-27T20:17:48.617Z,9.17
2018-01-27T20:20:16.911Z,14.27
2018-01-27T20:22:44.425Z,9.73
2018-01-27T20:25:11.951Z,10.40
2018-01-27T20:27:39.462Z,10.43
2018-01-27T20:30:07.763Z,8.67
2018-01-27T20:32:36.027Z,8.40
2018-01-27T20:35:04.325Z,8.60
2018-01-27T20:37:31.835Z,9.37
2018-01-27T20:39:59.360Z,9.10
2018-01-27T20:42:26.863Z,9.97
2018-01-27T20:44:54.383Z,8.80
2018-01-27T20:47:21.883Z,9.47
2018-01-27T20:49:49.393Z,10.53
2018-01-27T20:52:16.960Z,9.03
2018-01-27T20:54:44.471Z,10.03
2018-01-27T20:57:11.995Z,11.07
2018-01-27T20:59:39.506Z,10.60
2018-01-27T21:02:07.795Z,9.43
2018-01-27T21:04:36.072Z,9.73
2018-01-27T21:07:04.386Z,10.67
2018-01-27T21:09:31.903Z,10.00
2018-01-27T21:12:00.201Z,10.03
2018-01-27T21:14:27.778Z,11.23
2018-01-27T21:16:55.346Z,11.20
2018-01-27T21:19:22.859Z,11.67
2018-01-27T21:21:51.164Z,10.67
2018-01-27T21:24:18.675Z,10.00
2018-01-27T21:26:46.207Z,12.10
2018-01-27T21:29:13.733Z,12.10
2018-01-27T21:31:41.259Z,14.77
2018-01-27T21:34:08.771Z,10.20
2018-01-27T21:36:36.282Z,10.00
2018-01-27T21:39:03.820Z,11.93
2018-01-27T21:41:31.328Z,12.30
2018-01-27T21:43:58.865Z,10.90
2018-01-27T21:46:27.146Z,13.07
2018-01-27T21:48:55.449Z,13.40
2018-01-27T21:51:22.967Z,12.33
2018-01-27T21:53:50.499Z,10.87
2018-01-27T21:56:18.015Z,12.17
2018-01-27T21:58:46.303Z,11.43
2018-01-27T22:01:13.829Z,11.03
2018-01-27T22:03:41.360Z,12.20
2018-01-27T22:06:08.876Z,12.50
2018-01-27T22:08:37.152Z,13.57
2018-01-27T22:11:05.482Z,12.70
2018-01-27T22:13:32.991Z,14.53
2018-01-27T22:16:01.307Z,13.20
2018-01-27T22:18:28.822Z,13.63
2018-01-27T22:20:56.364Z,13.80
2018-01-27T22:23:23.879Z,12.93
2018-01-27T22:25:51.403Z,14.70
2018-01-27T22:28:18.911Z,13.47
2018-01-27T22:30:46.443Z,14.27
2018-01-27T22:33:14.719Z,13.80
2018-01-27T22:35:43.028Z,15.10
2018-01-27T22:38:10.560Z,14.13
2018-01-27T22:40:38.887Z,14.67
2018-01-27T22:43:06.403Z,13.70
2018-01-27T22:45:33.940Z,15.07
2018-01-27T22:48:02.235Z,13.00
2018-01-27T22:50:30.533Z,14.83
2018-01-27T22:52:58.043Z,14.00
2018-01-27T22:55:25.557Z,13.23
2018-01-27T22:57:53.091Z,14.07
2018-01-27T23:00:21.376Z,15.43
2018-01-27T23:02:48.903Z,14.30
2018-01-27T23:05:16.419Z,14.80
2018-01-27T23:07:43.950Z,16.20
2018-01-27T23:10:11.481Z,14.23
2018-01-27T23:12:39.025Z,15.10
2018-01-27T23:15:06.536Z,15.07
2018-01-27T23:17:34.067Z,14.90
2018-01-27T23:20:01.587Z,14.50
2018-01-27T23:22:29.133Z,12.20
2018-01-27T23:24:56.640Z,14.50
2018-01-27T23:27:24.190Z,13.00
2018-01-27T23:29:51.699Z,14.27
2018-01-27T23:32:19.210Z,14.83
2018-01-27T23:34:46.739Z,13.70
2018-01-27T23:37:14.247Z,14.90
2018-01-27T23:39:41.771Z,15.57
2018-01-27T23:42:09.287Z,12.90
2018-01-27T23:44:37.613Z,13.40
2018-01-27T23:47:05.122Z,15.57
2018-01-27T23:49:33.424Z,13.73
2018-01-27T23:52:00.937Z,13.43
2018-01-27T23:54:28.462Z,13.13
2018-01-27T23:56:55.974Z,13.40
2018-01-27T23:59:24.270Z,13.97
